sensor_id;sensor_type;location;lat;lon;timestamp;pressure;altitude;pressure_sealevel;temperature;humidity
59194;BME280;44967;48.598;15.650;2023-05-23T00:01:41;97837.81;;;14.52;80.52
59194;BME280;44967;48.598;15.650;2023-05-23T00:04:09;97832.47;;;14.52;80.22
59194;BME280;44967;48.598;15.650;2023-05-23T00:06:42;97833.53;;;14.49;80.58
59194;BME280;44967;48.598;15.650;2023-05-23T00:09:14;97832.03;;;14.44;80.57
59194;BME280;44967;48.598;15.650;2023-05-23T00:11:40;97833.22;;;14.38;80.45
59194;BME280;44967;48.598;15.650;2023-05-23T00:14:11;97829.72;;;14.38;80.56
59194;BME280;44967;48.598;15.650;2023-05-23T00:16:39;97833.50;;;14.32;79.80
59194;BME280;44967;48.598;15.650;2023-05-23T00:19:06;97837.34;;;14.27;80.30
59194;BME280;44967;48.598;15.650;2023-05-23T00:21:32;97835.66;;;14.26;81.98
59194;BME280;44967;48.598;15.650;2023-05-23T00:23:58;97833.94;;;14.42;81.67
59194;BME280;44967;48.598;15.650;2023-05-23T00:26:24;97837.53;;;14.41;80.74
59194;BME280;44967;48.598;15.650;2023-05-23T00:28:49;97843.69;;;14.41;80.66
59194;BME280;44967;48.598;15.650;2023-05-23T00:31:15;97837.97;;;14.32;80.47
59194;BME280;44967;48.598;15.650;2023-05-23T00:33:42;97837.97;;;14.32;80.60
59194;BME280;44967;48.598;15.650;2023-05-23T00:36:07;97839.63;;;14.17;81.04
59194;BME280;44967;48.598;15.650;2023-05-23T00:38:33;97844.31;;;14.12;80.80
59194;BME280;44967;48.598;15.650;2023-05-23T00:41:00;97846.28;;;14.08;80.86
59194;BME280;44967;48.598;15.650;2023-05-23T00:43:26;97843.28;;;14.14;80.90
59194;BME280;44967;48.598;15.650;2023-05-23T00:45:52;97845.66;;;14.03;80.96
59194;BME280;44967;48.598;15.650;2023-05-23T00:48:18;97846.50;;;14.04;81.20
59194;BME280;44967;48.598;15.650;2023-05-23T00:50:44;97846.56;;;14.02;81.14
59194;BME280;44967;48.598;15.650;2023-05-23T00:53:11;97851.75;;;13.88;81.72
59194;BME280;44967;48.598;15.650;2023-05-23T00:55:37;97831.13;;;13.76;82.23
59194;BME280;44967;48.598;15.650;2023-05-23T00:58:04;97825.75;;;13.78;82.03
59194;BME280;44967;48.598;15.650;2023-05-23T01:00:31;97830.81;;;13.82;81.59
59194;BME280;44967;48.598;15.650;2023-05-23T01:02:58;97835.66;;;13.91;81.76
59194;BME280;44967;48.598;15.650;2023-05-23T01:05:25;97833.00;;;13.91;81.53
59194;BME280;44967;48.598;15.650;2023-05-23T01:07:53;97839.41;;;13.87;81.61
59194;BME280;44967;48.598;15.650;2023-05-23T01:10:22;97829.81;;;13.85;81.81
59194;BME280;44967;48.598;15.650;2023-05-23T01:16:10;97827.06;;;13.86;81.05
59194;BME280;44967;48.598;15.650;2023-05-23T01:18:27;97824.88;;;13.77;81.24
59194;BME280;44967;48.598;15.650;2023-05-23T01:21:02;97818.69;;;13.59;81.61
59194;BME280;44967;48.598;15.650;2023-05-23T01:26:06;97816.13;;;13.58;81.67
59194;BME280;44967;48.598;15.650;2023-05-23T01:28:45;97819.72;;;13.57;81.96
59194;BME280;44967;48.598;15.650;2023-05-23T01:31:12;97824.25;;;13.55;82.01
59194;BME280;44967;48.598;15.650;2023-05-23T01:33:39;97826.59;;;13.61;81.49
59194;BME280;44967;48.598;15.650;2023-05-23T01:36:06;97818.78;;;13.58;81.71
59194;BME280;44967;48.598;15.650;2023-05-23T01:38:32;97819.00;;;13.53;81.70
59194;BME280;44967;48.598;15.650;2023-05-23T01:40:58;97814.84;;;13.48;82.43
59194;BME280;44967;48.598;15.650;2023-05-23T01:43:24;97820.16;;;13.48;81.76
59194;BME280;44967;48.598;15.650;2023-05-23T01:45:51;97821.03;;;13.48;81.56
59194;BME280;44967;48.598;15.650;2023-05-23T01:48:19;97822.75;;;13.49;81.50
59194;BME280;44967;48.598;15.650;2023-05-23T01:50:45;97829.91;;;13.47;81.34
59194;BME280;44967;48.598;15.650;2023-05-23T01:53:13;97824.06;;;13.41;81.54
59194;BME280;44967;48.598;15.650;2023-05-23T01:55:41;97822.44;;;13.38;81.99
59194;BME280;44967;48.598;15.650;2023-05-23T01:58:07;97821.22;;;13.27;82.57
59194;BME280;44967;48.598;15.650;2023-05-23T02:00:33;97827.16;;;13.32;83.02
59194;BME280;44967;48.598;15.650;2023-05-23T02:02:59;97821.00;;;13.31;81.95
59194;BME280;44967;48.598;15.650;2023-05-23T02:05:25;97828.41;;;13.25;82.12
59194;BME280;44967;48.598;15.650;2023-05-23T02:07:51;97823.56;;;13.33;81.85
59194;BME280;44967;48.598;15.650;2023-05-23T02:10:18;97819.50;;;13.26;81.69
59194;BME280;44967;48.598;15.650;2023-05-23T02:12:44;97822.94;;;13.28;81.33
59194;BME280;44967;48.598;15.650;2023-05-23T02:15:10;97825.53;;;13.29;81.15
59194;BME280;44967;48.598;15.650;2023-05-23T02:17:35;97827.75;;;13.19;80.95
59194;BME280;44967;48.598;15.650;2023-05-23T02:20:04;97832.94;;;13.23;81.35
59194;BME280;44967;48.598;15.650;2023-05-23T02:22:30;97825.84;;;13.23;80.93
59194;BME280;44967;48.598;15.650;2023-05-23T02:24:56;97831.19;;;13.21;81.46
59194;BME280;44967;48.598;15.650;2023-05-23T02:27:22;97830.13;;;13.26;81.30
59194;BME280;44967;48.598;15.650;2023-05-23T02:29:48;97826.81;;;13.20;80.92
59194;BME280;44967;48.598;15.650;2023-05-23T02:32:13;97824.09;;;13.22;80.89
59194;BME280;44967;48.598;15.650;2023-05-23T02:34:39;97818.38;;;13.12;80.96
59194;BME280;44967;48.598;15.650;2023-05-23T02:37:04;97819.16;;;13.14;81.23
59194;BME280;44967;48.598;15.650;2023-05-23T02:39:30;97814.63;;;13.16;81.29
59194;BME280;44967;48.598;15.650;2023-05-23T02:41:56;97816.69;;;13.11;81.12
59194;BME280;44967;48.598;15.650;2023-05-23T02:44:21;97820.59;;;13.03;80.06
59194;BME280;44967;48.598;15.650;2023-05-23T02:46:47;97819.72;;;13.02;81.04
59194;BME280;44967;48.598;15.650;2023-05-23T02:49:12;97812.19;;;12.93;80.64
59194;BME280;44967;48.598;15.650;2023-05-23T02:51:38;97813.91;;;12.94;81.03
59194;BME280;44967;48.598;15.650;2023-05-23T02:54:04;97817.66;;;12.90;80.79
59194;BME280;44967;48.598;15.650;2023-05-23T02:56:29;97808.84;;;12.71;80.91
59194;BME280;44967;48.598;15.650;2023-05-23T02:58:55;97805.75;;;12.80;80.96
59194;BME280;44967;48.598;15.650;2023-05-23T03:01:21;97806.34;;;12.87;81.04
59194;BME280;44967;48.598;15.650;2023-05-23T03:03:47;97803.75;;;12.85;80.67
59194;BME280;44967;48.598;15.650;2023-05-23T03:06:13;97817.50;;;12.74;80.42
59194;BME280;44967;48.598;15.650;2023-05-23T03:08:40;97814.31;;;12.68;80.38
59194;BME280;44967;48.598;15.650;2023-05-23T03:11:06;97804.63;;;12.67;80.26
59194;BME280;44967;48.598;15.650;2023-05-23T03:13:31;97811.00;;;12.63;80.08
59194;BME280;44967;48.598;15.650;2023-05-23T03:15:57;97805.91;;;12.58;79.91
59194;BME280;44967;48.598;15.650;2023-05-23T03:18:22;97817.63;;;12.53;80.81
59194;BME280;44967;48.598;15.650;2023-05-23T03:20:48;97813.53;;;12.46;81.39
59194;BME280;44967;48.598;15.650;2023-05-23T03:23:14;97804.38;;;12.53;81.32
59194;BME280;44967;48.598;15.650;2023-05-23T03:25:41;97801.16;;;12.65;81.23
59194;BME280;44967;48.598;15.650;2023-05-23T03:28:07;97797.78;;;12.80;80.42
59194;BME280;44967;48.598;15.650;2023-05-23T03:30:33;97796.38;;;12.73;80.36
59194;BME280;44967;48.598;15.650;2023-05-23T03:32:59;97798.16;;;12.72;80.87
59194;BME280;44967;48.598;15.650;2023-05-23T03:35:26;97787.69;;;12.69;80.68
59194;BME280;44967;48.598;15.650;2023-05-23T03:37:51;97793.81;;;12.71;80.90
59194;BME280;44967;48.598;15.650;2023-05-23T03:40:17;97799.59;;;12.61;81.28
59194;BME280;44967;48.598;15.650;2023-05-23T03:42:43;97792.09;;;12.52;81.80
59194;BME280;44967;48.598;15.650;2023-05-23T03:45:08;97802.91;;;12.66;81.06
59194;BME280;44967;48.598;15.650;2023-05-23T03:47:34;97792.13;;;12.69;80.72
59194;BME280;44967;48.598;15.650;2023-05-23T03:50:01;97798.97;;;12.74;80.54
59194;BME280;44967;48.598;15.650;2023-05-23T03:52:26;97808.84;;;12.71;80.80
59194;BME280;44967;48.598;15.650;2023-05-23T03:54:52;97801.09;;;12.85;80.78
59194;BME280;44967;48.598;15.650;2023-05-23T03:57:18;97798.06;;;12.93;81.01
59194;BME280;44967;48.598;15.650;2023-05-23T03:59:44;97801.91;;;12.87;80.78
59194;BME280;44967;48.598;15.650;2023-05-23T04:02:09;97809.19;;;12.82;80.49
59194;BME280;44967;48.598;15.650;2023-05-23T04:04:35;97811.53;;;12.88;80.87
59194;BME280;44967;48.598;15.650;2023-05-23T04:07:01;97814.66;;;12.79;80.89
59194;BME280;44967;48.598;15.650;2023-05-23T04:09:27;97804.16;;;12.76;80.93
59194;BME280;44967;48.598;15.650;2023-05-23T04:11:53;97799.47;;;12.83;80.67
59194;BME280;44967;48.598;15.650;2023-05-23T04:14:18;97806.25;;;12.88;80.59
59194;BME280;44967;48.598;15.650;2023-05-23T04:16:46;97807.81;;;12.92;80.82
59194;BME280;44967;48.598;15.650;2023-05-23T04:19:12;97805.97;;;12.94;80.78
59194;BME280;44967;48.598;15.650;2023-05-23T04:21:38;97804.41;;;12.90;80.69
59194;BME280;44967;48.598;15.650;2023-05-23T04:24:03;97805.97;;;12.94;81.05
59194;BME280;44967;48.598;15.650;2023-05-23T04:26:30;97800.44;;;12.99;80.78
59194;BME280;44967;48.598;15.650;2023-05-23T04:28:56;97809.13;;;13.02;80.85
59194;BME280;44967;48.598;15.650;2023-05-23T04:31:21;97801.00;;;13.05;80.74
59194;BME280;44967;48.598;15.650;2023-05-23T04:33:47;97804.59;;;13.04;80.50
59194;BME280;44967;48.598;15.650;2023-05-23T04:36:14;97790.16;;;13.11;80.61
59194;BME280;44967;48.598;15.650;2023-05-23T04:38:43;97802.56;;;13.09;80.80
59194;BME280;44967;48.598;15.650;2023-05-23T04:41:08;97799.16;;;13.07;81.30
59194;BME280;44967;48.598;15.650;2023-05-23T04:43:34;97800.06;;;13.06;81.34
59194;BME280;44967;48.598;15.650;2023-05-23T04:46:02;97792.88;;;13.08;81.62
59194;BME280;44967;48.598;15.650;2023-05-23T04:48:28;97804.19;;;13.13;81.48
59194;BME280;44967;48.598;15.650;2023-05-23T04:50:55;97798.56;;;13.19;81.46
59194;BME280;44967;48.598;15.650;2023-05-23T04:53:22;97797.25;;;13.28;81.68
59194;BME280;44967;48.598;15.650;2023-05-23T04:55:47;97801.19;;;13.38;81.41
59194;BME280;44967;48.598;15.650;2023-05-23T04:58:16;97808.31;;;13.55;81.39
59194;BME280;44967;48.598;15.650;2023-05-23T05:00:41;97804.47;;;13.60;80.61
59194;BME280;44967;48.598;15.650;2023-05-23T05:03:07;97802.63;;;13.62;80.34
59194;BME280;44967;48.598;15.650;2023-05-23T05:05:34;97802.22;;;13.70;80.24
59194;BME280;44967;48.598;15.650;2023-05-23T05:07:59;97808.00;;;13.78;80.25
59194;BME280;44967;48.598;15.650;2023-05-23T05:10:25;97799.41;;;13.90;79.88
59194;BME280;44967;48.598;15.650;2023-05-23T05:12:51;97796.44;;;13.96;79.70
59194;BME280;44967;48.598;15.650;2023-05-23T05:15:17;97793.91;;;14.10;79.42
59194;BME280;44967;48.598;15.650;2023-05-23T05:17:43;97797.00;;;14.18;79.58
59194;BME280;44967;48.598;15.650;2023-05-23T05:20:10;97797.41;;;14.28;78.86
59194;BME280;44967;48.598;15.650;2023-05-23T05:22:36;97797.34;;;14.30;78.71
59194;BME280;44967;48.598;15.650;2023-05-23T05:25:08;97793.31;;;14.38;78.50
59194;BME280;44967;48.598;15.650;2023-05-23T05:27:34;97792.09;;;14.45;78.78
59194;BME280;44967;48.598;15.650;2023-05-23T05:30:06;97791.75;;;14.51;78.50
59194;BME280;44967;48.598;15.650;2023-05-23T05:32:33;97801.03;;;14.60;78.57
59194;BME280;44967;48.598;15.650;2023-05-23T05:34:59;97790.81;;;14.68;78.57
59194;BME280;44967;48.598;15.650;2023-05-23T05:37:25;97796.75;;;14.73;77.91
59194;BME280;44967;48.598;15.650;2023-05-23T05:39:51;97795.03;;;14.88;77.19
59194;BME280;44967;48.598;15.650;2023-05-23T05:42:19;97792.88;;;14.94;77.51
59194;BME280;44967;48.598;15.650;2023-05-23T05:44:45;97795.91;;;15.04;77.68
59194;BME280;44967;48.598;15.650;2023-05-23T05:47:11;97801.66;;;15.12;77.06
59194;BME280;44967;48.598;15.650;2023-05-23T05:49:37;97800.63;;;15.15;77.24
59194;BME280;44967;48.598;15.650;2023-05-23T05:52:05;97807.16;;;15.25;76.74
59194;BME280;44967;48.598;15.650;2023-05-23T05:54:31;97807.66;;;15.31;77.05
59194;BME280;44967;48.598;15.650;2023-05-23T05:56:57;97807.22;;;15.39;77.09
59194;BME280;44967;48.598;15.650;2023-05-23T05:59:23;97811.41;;;15.43;77.39
59194;BME280;44967;48.598;15.650;2023-05-23T06:01:49;97803.78;;;15.52;76.88
59194;BME280;44967;48.598;15.650;2023-05-23T06:04:17;97807.97;;;15.56;76.96
59194;BME280;44967;48.598;15.650;2023-05-23T06:06:43;97808.50;;;15.63;77.12
59194;BME280;44967;48.598;15.650;2023-05-23T06:09:09;97816.03;;;15.71;77.02
59194;BME280;44967;48.598;15.650;2023-05-23T06:11:35;97813.91;;;15.91;76.25
59194;BME280;44967;48.598;15.650;2023-05-23T06:14:05;97808.00;;;16.00;75.46
59194;BME280;44967;48.598;15.650;2023-05-23T06:16:31;97799.38;;;16.11;75.43
59194;BME280;44967;48.598;15.650;2023-05-23T06:18:56;97806.13;;;16.17;76.13
59194;BME280;44967;48.598;15.650;2023-05-23T06:21:22;97801.50;;;16.34;75.08
59194;BME280;44967;48.598;15.650;2023-05-23T06:23:48;97796.09;;;16.50;73.90
59194;BME280;44967;48.598;15.650;2023-05-23T06:26:13;97804.97;;;16.65;72.53
59194;BME280;44967;48.598;15.650;2023-05-23T06:28:39;97800.78;;;16.75;67.72
59194;BME280;44967;48.598;15.650;2023-05-23T06:31:05;97793.13;;;16.83;66.04
59194;BME280;44967;48.598;15.650;2023-05-23T06:33:31;97791.25;;;17.12;65.02
59194;BME280;44967;48.598;15.650;2023-05-23T06:35:57;97785.25;;;17.22;63.61
59194;BME280;44967;48.598;15.650;2023-05-23T06:38:22;97796.59;;;17.26;63.62
59194;BME280;44967;48.598;15.650;2023-05-23T06:40:48;97783.16;;;17.40;63.53
59194;BME280;44967;48.598;15.650;2023-05-23T06:43:14;97790.88;;;17.44;63.40
59194;BME280;44967;48.598;15.650;2023-05-23T06:45:39;97783.00;;;17.56;62.81
59194;BME280;44967;48.598;15.650;2023-05-23T06:48:05;97783.09;;;17.68;63.49
59194;BME280;44967;48.598;15.650;2023-05-23T06:50:31;97789.94;;;17.72;62.28
59194;BME280;44967;48.598;15.650;2023-05-23T06:52:57;97793.56;;;17.71;62.65
59194;BME280;44967;48.598;15.650;2023-05-23T06:55:23;97786.28;;;17.61;62.54
59194;BME280;44967;48.598;15.650;2023-05-23T06:57:49;97779.47;;;17.69;61.82
59194;BME280;44967;48.598;15.650;2023-05-23T07:00:17;97779.06;;;17.88;62.47
59194;BME280;44967;48.598;15.650;2023-05-23T07:02:44;97781.53;;;18.04;62.35
59194;BME280;44967;48.598;15.650;2023-05-23T07:05:15;97774.38;;;18.42;61.34
59194;BME280;44967;48.598;15.650;2023-05-23T07:07:42;97779.19;;;18.88;59.21
59194;BME280;44967;48.598;15.650;2023-05-23T07:10:08;97777.28;;;19.50;57.63
59194;BME280;44967;48.598;15.650;2023-05-23T07:12:34;97773.81;;;20.41;54.65
59194;BME280;44967;48.598;15.650;2023-05-23T07:15:01;97775.56;;;20.53;52.92
59194;BME280;44967;48.598;15.650;2023-05-23T07:17:27;97764.94;;;21.50;51.76
59194;BME280;44967;48.598;15.650;2023-05-23T07:19:54;97765.63;;;22.37;49.20
59194;BME280;44967;48.598;15.650;2023-05-23T07:22:20;97755.06;;;23.55;46.34
59194;BME280;44967;48.598;15.650;2023-05-23T07:24:46;97752.44;;;24.50;44.82
59194;BME280;44967;48.598;15.650;2023-05-23T07:27:11;97751.81;;;24.75;43.48
59194;BME280;44967;48.598;15.650;2023-05-23T07:29:37;97756.81;;;25.79;41.83
59194;BME280;44967;48.598;15.650;2023-05-23T07:32:03;97746.81;;;25.97;39.86
59194;BME280;44967;48.598;15.650;2023-05-23T07:34:28;97752.53;;;26.30;39.43
59194;BME280;44967;48.598;15.650;2023-05-23T07:36:54;97751.06;;;26.61;39.13
59194;BME280;44967;48.598;15.650;2023-05-23T07:39:20;97747.06;;;27.41;37.48
59194;BME280;44967;48.598;15.650;2023-05-23T07:41:47;97750.28;;;27.36;37.66
59194;BME280;44967;48.598;15.650;2023-05-23T07:44:15;97746.13;;;27.74;36.71
59194;BME280;44967;48.598;15.650;2023-05-23T07:46:41;97743.97;;;26.86;37.20
59194;BME280;44967;48.598;15.650;2023-05-23T07:49:06;97745.09;;;27.59;35.88
59194;BME280;44967;48.598;15.650;2023-05-23T07:51:32;97748.56;;;28.18;34.33
59194;BME280;44967;48.598;15.650;2023-05-23T07:53:57;97744.78;;;27.78;36.68
59194;BME280;44967;48.598;15.650;2023-05-23T07:56:23;97746.09;;;27.50;36.65
59194;BME280;44967;48.598;15.650;2023-05-23T07:58:48;97755.22;;;28.15;36.11
59194;BME280;44967;48.598;15.650;2023-05-23T08:01:14;97755.41;;;27.47;37.01
59194;BME280;44967;48.598;15.650;2023-05-23T08:03:40;97753.97;;;28.01;36.21
59194;BME280;44967;48.598;15.650;2023-05-23T08:06:06;97748.69;;;28.65;35.62
59194;BME280;44967;48.598;15.650;2023-05-23T08:08:34;97751.44;;;28.48;35.45
59194;BME280;44967;48.598;15.650;2023-05-23T08:11:00;97744.00;;;28.26;36.10
59194;BME280;44967;48.598;15.650;2023-05-23T08:13:26;97744.84;;;28.19;36.43
59194;BME280;44967;48.598;15.650;2023-05-23T08:15:52;97747.97;;;26.82;39.01
59194;BME280;44967;48.598;15.650;2023-05-23T08:18:18;97742.84;;;27.46;39.19
59194;BME280;44967;48.598;15.650;2023-05-23T08:20:45;97735.69;;;28.12;37.61
59194;BME280;44967;48.598;15.650;2023-05-23T08:23:10;97738.38;;;27.95;37.96
59194;BME280;44967;48.598;15.650;2023-05-23T08:25:38;97740.34;;;28.90;36.48
59194;BME280;44967;48.598;15.650;2023-05-23T08:28:03;97738.31;;;28.84;36.00
59194;BME280;44967;48.598;15.650;2023-05-23T08:30:30;97734.81;;;28.51;36.71
59194;BME280;44967;48.598;15.650;2023-05-23T08:32:59;97738.16;;;28.78;37.00
59194;BME280;44967;48.598;15.650;2023-05-23T08:35:25;97739.50;;;28.90;37.03
59194;BME280;44967;48.598;15.650;2023-05-23T08:37:53;97747.41;;;27.46;40.33
59194;BME280;44967;48.598;15.650;2023-05-23T08:40:21;97745.00;;;27.85;37.87
59194;BME280;44967;48.598;15.650;2023-05-23T08:42:47;97732.22;;;28.66;37.51
59194;BME280;44967;48.598;15.650;2023-05-23T08:45:14;97733.91;;;28.83;37.24
59194;BME280;44967;48.598;15.650;2023-05-23T08:47:42;97736.97;;;28.80;37.29
59194;BME280;44967;48.598;15.650;2023-05-23T08:50:14;97727.13;;;28.63;38.18
59194;BME280;44967;48.598;15.650;2023-05-23T08:52:49;97728.38;;;29.08;37.39
59194;BME280;44967;48.598;15.650;2023-05-23T08:55:19;97724.13;;;29.44;36.42
59194;BME280;44967;48.598;15.650;2023-05-23T08:57:45;97728.13;;;28.86;37.58
59194;BME280;44967;48.598;15.650;2023-05-23T09:00:11;97723.41;;;28.64;38.35
59194;BME280;44967;48.598;15.650;2023-05-23T09:02:42;97728.75;;;28.96;37.09
59194;BME280;44967;48.598;15.650;2023-05-23T09:05:09;97731.16;;;28.99;37.96
59194;BME280;44967;48.598;15.650;2023-05-23T09:07:36;97735.31;;;29.18;38.20
59194;BME280;44967;48.598;15.650;2023-05-23T09:10:04;97733.56;;;28.86;37.87
59194;BME280;44967;48.598;15.650;2023-05-23T09:12:33;97745.81;;;28.82;37.61
59194;BME280;44967;48.598;15.650;2023-05-23T09:15:00;97741.13;;;28.20;39.16
59194;BME280;44967;48.598;15.650;2023-05-23T09:17:26;97737.53;;;28.27;39.20
59194;BME280;44967;48.598;15.650;2023-05-23T09:19:52;97743.84;;;28.20;40.02
59194;BME280;44967;48.598;15.650;2023-05-23T09:22:24;97740.03;;;28.61;39.03
59194;BME280;44967;48.598;15.650;2023-05-23T09:24:54;97737.41;;;28.21;40.23
59194;BME280;44967;48.598;15.650;2023-05-23T09:27:20;97741.41;;;28.73;39.37
59194;BME280;44967;48.598;15.650;2023-05-23T09:29:46;97737.25;;;29.01;39.69
59194;BME280;44967;48.598;15.650;2023-05-23T09:32:17;97744.66;;;28.69;39.55
59194;BME280;44967;48.598;15.650;2023-05-23T09:37:15;97743.09;;;26.85;44.17
59194;BME280;44967;48.598;15.650;2023-05-23T09:39:46;97743.81;;;26.44;44.85
59194;BME280;44967;48.598;15.650;2023-05-23T09:42:19;97747.91;;;25.69;46.19
59194;BME280;44967;48.598;15.650;2023-05-23T09:44:49;97752.47;;;25.23;47.87
59194;BME280;44967;48.598;15.650;2023-05-23T09:47:15;97756.06;;;24.87;49.14
59194;BME280;44967;48.598;15.650;2023-05-23T09:49:45;97752.69;;;24.66;49.84
59194;BME280;44967;48.598;15.650;2023-05-23T09:52:11;97750.88;;;24.57;50.65
59194;BME280;44967;48.598;15.650;2023-05-23T09:54:38;97753.91;;;24.34;50.85
59194;BME280;44967;48.598;15.650;2023-05-23T09:57:09;97749.19;;;24.46;51.62
59194;BME280;44967;48.598;15.650;2023-05-23T09:59:38;97751.88;;;24.46;51.18
59194;BME280;44967;48.598;15.650;2023-05-23T10:02:06;97744.53;;;24.38;52.10
59194;BME280;44967;48.598;15.650;2023-05-23T10:04:33;97745.03;;;25.25;49.93
59194;BME280;44967;48.598;15.650;2023-05-23T10:07:20;97738.38;;;26.18;47.83
59194;BME280;44967;48.598;15.650;2023-05-23T10:09:53;97728.47;;;26.52;47.30
59194;BME280;44967;48.598;15.650;2023-05-23T10:12:41;97722.19;;;27.11;46.11
59194;BME280;44967;48.598;15.650;2023-05-23T10:15:10;97720.44;;;27.02;45.05
59194;BME280;44967;48.598;15.650;2023-05-23T10:18:05;97715.75;;;27.12;44.44
59194;BME280;44967;48.598;15.650;2023-05-23T10:20:33;97719.41;;;27.37;43.13
59194;BME280;44967;48.598;15.650;2023-05-23T10:23:03;97708.72;;;27.36;42.19
59194;BME280;44967;48.598;15.650;2023-05-23T10:25:30;97703.72;;;27.65;41.38
59194;BME280;44967;48.598;15.650;2023-05-23T10:27:57;97704.41;;;27.91;40.15
59194;BME280;44967;48.598;15.650;2023-05-23T10:30:26;97696.78;;;28.19;39.80
59194;BME280;44967;48.598;15.650;2023-05-23T10:32:55;97702.03;;;27.96;39.53
59194;BME280;44967;48.598;15.650;2023-05-23T10:35:27;97693.38;;;27.85;39.47
59194;BME280;44967;48.598;15.650;2023-05-23T10:45:44;97681.97;;;27.49;39.50
59194;BME280;44967;48.598;15.650;2023-05-23T10:48:33;97679.63;;;27.12;39.62
59194;BME280;44967;48.598;15.650;2023-05-23T10:51:07;97672.78;;;26.92;40.62
59194;BME280;44967;48.598;15.650;2023-05-23T10:53:40;97665.66;;;26.57;42.93
59194;BME280;44967;48.598;15.650;2023-05-23T10:56:08;97659.94;;;26.34;42.77
59194;BME280;44967;48.598;15.650;2023-05-23T10:58:35;97660.22;;;26.05;43.24
59194;BME280;44967;48.598;15.650;2023-05-23T11:01:05;97653.69;;;25.72;43.83
59194;BME280;44967;48.598;15.650;2023-05-23T11:06:02;97666.22;;;25.20;45.16
59194;BME280;44967;48.598;15.650;2023-05-23T11:08:36;97680.47;;;24.95;48.07
59194;BME280;44967;48.598;15.650;2023-05-23T11:11:03;97690.19;;;24.41;52.76
59194;BME280;44967;48.598;15.650;2023-05-23T11:13:57;97740.13;;;22.62;61.04
59194;BME280;44967;48.598;15.650;2023-05-23T11:16:25;97718.09;;;21.10;67.41
59194;BME280;44967;48.598;15.650;2023-05-23T11:18:51;97705.81;;;20.96;67.87
59194;BME280;44967;48.598;15.650;2023-05-23T11:21:18;97696.94;;;20.18;68.04
59194;BME280;44967;48.598;15.650;2023-05-23T11:23:44;97685.25;;;20.52;70.79
59194;BME280;44967;48.598;15.650;2023-05-23T11:26:29;97687.66;;;21.32;71.93
59194;BME280;44967;48.598;15.650;2023-05-23T11:28:56;97671.66;;;21.83;67.31
59194;BME280;44967;48.598;15.650;2023-05-23T11:31:22;97662.75;;;22.03;61.29
59194;BME280;44967;48.598;15.650;2023-05-23T11:33:51;97662.44;;;22.27;64.71
59194;BME280;44967;48.598;15.650;2023-05-23T11:36:17;97646.91;;;22.80;60.92
59194;BME280;44967;48.598;15.650;2023-05-23T11:38:42;97648.56;;;23.30;66.42
59194;BME280;44967;48.598;15.650;2023-05-23T11:41:08;97652.84;;;23.52;62.30
59194;BME280;44967;48.598;15.650;2023-05-23T11:43:34;97646.44;;;23.43;62.80
59194;BME280;44967;48.598;15.650;2023-05-23T11:46:07;97640.59;;;23.19;60.96
59194;BME280;44967;48.598;15.650;2023-05-23T11:48:33;97650.94;;;22.65;62.09
59194;BME280;44967;48.598;15.650;2023-05-23T11:50:58;97675.22;;;22.34;65.54
59194;BME280;44967;48.598;15.650;2023-05-23T11:53:26;97712.16;;;22.02;67.06
59194;BME280;44967;48.598;15.650;2023-05-23T11:56:01;97740.25;;;21.77;66.39
59194;BME280;44967;48.598;15.650;2023-05-23T11:58:36;97741.13;;;21.46;62.45
59194;BME280;44967;48.598;15.650;2023-05-23T12:01:10;97724.81;;;21.27;58.60
59194;BME280;44967;48.598;15.650;2023-05-23T12:04:10;97702.59;;;21.25;58.85
59194;BME280;44967;48.598;15.650;2023-05-23T12:06:50;97699.47;;;20.97;59.01
59194;BME280;44967;48.598;15.650;2023-05-23T12:09:19;97702.19;;;20.75;59.92
59194;BME280;44967;48.598;15.650;2023-05-23T12:11:45;97709.78;;;20.37;62.47
59194;BME280;44967;48.598;15.650;2023-05-23T12:14:15;97722.38;;;20.01;67.28
59194;BME280;44967;48.598;15.650;2023-05-23T12:16:43;97729.69;;;19.64;67.42
59194;BME280;44967;48.598;15.650;2023-05-23T12:19:13;97731.22;;;19.32;67.75
59194;BME280;44967;48.598;15.650;2023-05-23T12:24:26;97735.59;;;18.86;71.82
59194;BME280;44967;48.598;15.650;2023-05-23T12:26:53;97736.41;;;18.62;72.23
59194;BME280;44967;48.598;15.650;2023-05-23T12:29:29;97740.97;;;18.73;75.15
59194;BME280;44967;48.598;15.650;2023-05-23T12:31:57;97735.00;;;18.57;76.21
59194;BME280;44967;48.598;15.650;2023-05-23T12:34:23;97729.97;;;18.65;76.33
59194;BME280;44967;48.598;15.650;2023-05-23T12:36:53;97736.28;;;18.51;77.91
59194;BME280;44967;48.598;15.650;2023-05-23T12:39:29;97726.34;;;18.41;80.22
59194;BME280;44967;48.598;15.650;2023-05-23T12:42:06;97736.91;;;18.42;80.69
59194;BME280;44967;48.598;15.650;2023-05-23T12:44:32;97737.88;;;18.41;80.48
59194;BME280;44967;48.598;15.650;2023-05-23T12:46:58;97737.78;;;18.30;81.23
59194;BME280;44967;48.598;15.650;2023-05-23T12:49:24;97739.97;;;18.25;81.42
59194;BME280;44967;48.598;15.650;2023-05-23T12:51:50;97733.31;;;18.30;82.08
59194;BME280;44967;48.598;15.650;2023-05-23T12:54:16;97731.56;;;18.42;82.14
59194;BME280;44967;48.598;15.650;2023-05-23T12:56:42;97735.00;;;18.44;82.22
59194;BME280;44967;48.598;15.650;2023-05-23T12:59:07;97739.91;;;18.50;81.84
59194;BME280;44967;48.598;15.650;2023-05-23T13:01:33;97736.06;;;18.42;80.50
59194;BME280;44967;48.598;15.650;2023-05-23T13:03:59;97752.97;;;18.42;80.67
59194;BME280;44967;48.598;15.650;2023-05-23T13:06:26;97754.06;;;18.40;79.20
59194;BME280;44967;48.598;15.650;2023-05-23T13:08:52;97767.84;;;18.46;79.87
59194;BME280;44967;48.598;15.650;2023-05-23T13:11:19;97775.06;;;18.58;79.29
59194;BME280;44967;48.598;15.650;2023-05-23T13:13:47;97766.66;;;18.50;79.06